Time;durP1;ratioP1;P1;durP2;ratioP2;P2;SDS_P1;SDS_P2;PMS_P1;PMS_P2;Temp;Humidity;BMP_temperature;BMP_pressure;BME280_temperature;BME280_humidity;BME280_pressure;Samples;Min_cycle;Max_cycle;Signal;HPM_P1;HPM_P2
2022/12/13 00:01:10;;;;;;;5.57;4.55;;;11.30;70.50;;;;;;4992553;28;20172;-77
2022/12/13 00:03:36;;;;;;;7.00;4.35;;;11.30;56.50;;;;;;4992521;28;20035;-77
2022/12/13 00:06:05;;;;;;;6.03;4.90;;;11.30;56.50;;;;;;4992605;28;20026;-77
2022/12/13 00:08:30;;;;;;;5.53;4.50;;;11.40;70.30;;;;;;4976229;28;20026;-77
2022/12/13 00:11:00;;;;;;;6.85;4.78;;;11.30;70.40;;;;;;4992485;28;20531;-77
2022/12/13 00:13:26;;;;;;;7.78;4.68;;;11.30;56.50;;;;;;4976217;28;20076;-77
2022/12/13 00:16:00;;;;;;;6.25;4.43;;;11.30;55.90;;;;;;4992349;28;20029;-77
2022/12/13 00:18:27;;;;;;;6.28;4.95;;;11.30;56.80;;;;;;4991762;28;20026;-77
2022/12/13 00:20:53;;;;;;;5.88;4.45;;;11.30;56.30;;;;;;4976150;28;20109;-77
2022/12/13 00:23:19;;;;;;;5.93;4.50;;;11.40;56.30;;;;;;4993425;28;20117;-77
2022/12/13 00:25:44;;;;;;;5.57;4.07;;;11.40;56.90;;;;;;4975952;28;20488;-77
2022/12/13 00:28:11;;;;;;;5.78;4.07;;;11.60;56.30;;;;;;4993428;28;20018;-77
2022/12/13 00:30:37;;;;;;;5.30;4.15;;;11.40;55.60;;;;;;4993375;28;20473;-77
2022/12/13 00:33:03;;;;;;;5.30;4.38;;;11.40;56.20;;;;;;4992077;28;20106;-77
2022/12/13 00:35:28;;;;;;;7.25;4.45;;;11.40;56.20;;;;;;4992084;28;20035;-77
2022/12/13 00:37:54;;;;;;;5.80;4.25;;;11.40;56.20;;;;;;4993517;28;20037;-77
2022/12/13 00:40:20;;;;;;;5.53;3.97;;;11.40;56.30;;;;;;4993205;28;20101;-77
2022/12/13 00:42:46;;;;;;;6.00;3.92;;;11.40;56.10;;;;;;4975616;28;20057;-76
2022/12/13 00:45:11;;;;;;;5.97;4.20;;;11.40;56.30;;;;;;4975616;28;20027;-77
2022/12/13 00:47:37;;;;;;;4.85;3.95;;;11.30;56.20;;;;;;4993163;28;20084;-77
2022/12/13 00:50:05;;;;;;;4.30;3.58;;;11.30;56.20;;;;;;4993071;28;20069;-77
2022/12/13 00:52:32;;;;;;;6.68;4.00;;;11.20;69.90;;;;;;4992909;28;20026;-77
2022/12/13 00:54:58;;;;;;;5.03;3.63;;;11.30;56.30;;;;;;4975485;28;20061;-77
2022/12/13 00:57:23;;;;;;;5.78;4.15;;;11.30;56.20;;;;;;4993191;28;20038;-77
2022/12/13 00:59:49;;;;;;;5.30;3.80;;;11.30;56.20;;;;;;4991595;28;20030;-77
2022/12/13 01:02:15;;;;;;;4.30;3.40;;;11.30;56.20;;;;;;4991320;28;20497;-77
2022/12/13 01:04:40;;;;;;;5.57;3.70;;;11.30;56.20;;;;;;4992904;28;20076;-77
2022/12/13 01:07:06;;;;;;;6.15;3.65;;;11.30;56.90;;;;;;4991712;28;20026;-77
2022/12/13 01:09:32;;;;;;;6.22;3.70;;;11.30;56.40;;;;;;4992896;28;20034;-77
2022/12/13 01:12:00;;;;;;;5.20;3.95;;;11.20;56.20;;;;;;4993073;28;20053;-77
2022/12/13 01:14:27;;;;;;;4.78;3.55;;;11.20;56.20;;;;;;4992828;28;20073;-77
2022/12/13 01:16:54;;;;;;;4.03;3.05;;;11.20;56.30;;;;;;4992923;28;20084;-76
2022/12/13 01:19:21;;;;;;;3.88;3.45;;;11.20;56.30;;;;;;4992856;28;20022;-77
2022/12/13 01:21:47;;;;;;;5.22;3.45;;;11.20;57.00;;;;;;4991413;28;20027;-76
2022/12/13 01:24:14;;;;;;;4.57;3.40;;;11.20;56.30;;;;;;4992659;28;20077;-76
2022/12/13 01:26:40;;;;;;;4.78;3.47;;;11.20;56.80;;;;;;4992721;28;20436;-76
2022/12/13 01:29:05;;;;;;;5.32;3.65;;;11.20;56.30;;;;;;4991412;28;20081;-76
2022/12/13 01:31:31;;;;;;;4.25;3.30;;;11.10;56.20;;;;;;4994316;28;20077;-76
2022/12/13 01:33:57;;;;;;;5.65;3.78;;;11.20;57.10;;;;;;4996640;28;20435;-76
2022/12/13 01:36:23;;;;;;;4.47;3.65;;;11.20;70.40;;;;;;4996609;28;20022;-76
2022/12/13 01:38:48;;;;;;;4.20;3.03;;;11.10;56.30;;;;;;4996610;28;20022;-76
2022/12/13 01:41:17;;;;;;;4.00;3.20;;;11.10;70.30;;;;;;4995300;28;20022;-76
2022/12/13 01:43:42;;;;;;;4.25;3.33;;;11.10;56.40;;;;;;4996462;28;20061;-76
2022/12/13 01:46:10;;;;;;;4.13;2.92;;;11.20;56.60;;;;;;4996537;28;20069;-76
2022/12/13 01:48:57;;;;;;;4.60;3.63;;;11.10;56.40;;;;;;4978860;28;20023;-76
2022/12/13 01:51:40;;;;;;;5.22;3.30;;;11.10;56.30;;;;;;4996433;28;20026;-76
2022/12/13 01:54:10;;;;;;;5.22;3.58;;;11.10;56.30;;;;;;4995113;28;20030;-76
2022/12/13 01:56:43;;;;;;;4.07;3.50;;;11.10;56.30;;;;;;4996178;28;20034;-76
2022/12/13 01:59:11;;;;;;;4.72;3.30;;;11.10;56.30;;;;;;4978791;28;20042;-76
2022/12/13 02:01:37;;;;;;;4.47;3.30;;;11.10;57.00;;;;;;4996024;28;20045;-76
2022/12/13 02:04:03;;;;;;;4.22;3.42;;;11.10;56.30;;;;;;4996122;28;20034;-76
2022/12/13 02:06:35;;;;;;;5.18;3.60;;;11.30;70.90;;;;;;4996133;28;20030;-76
2022/12/13 02:09:04;;;;;;;3.92;3.17;;;11.10;56.30;;;;;;4978484;28;20033;-76
2022/12/13 02:11:29;;;;;;;4.40;3.38;;;10.90;56.30;;;;;;4978427;28;20025;-76
2022/12/13 02:13:55;;;;;;;4.43;3.13;;;11.00;56.30;;;;;;4995957;28;20019;-76
2022/12/13 02:16:38;;;;;;;3.65;2.92;;;11.00;56.40;;;;;;4995904;28;20161;-76
2022/12/13 02:19:41;;;;;;;4.35;3.20;;;11.00;56.20;;;;;;4994610;28;20110;-76
2022/12/13 02:22:12;;;;;;;4.95;3.70;;;11.10;56.20;;;;;;4995849;28;20038;-76
2022/12/13 02:25:02;;;;;;;4.28;3.35;;;11.00;56.20;;;;;;4994436;28;20038;-76
2022/12/13 02:27:55;;;;;;;3.88;3.22;;;11.00;56.20;;;;;;4995761;28;20477;-76
2022/12/13 02:30:25;;;;;;;4.57;3.80;;;11.00;56.20;;;;;;4994343;28;20034;-76
2022/12/13 02:33:07;;;;;;;4.85;3.38;;;11.00;56.20;;;;;;4995603;28;20018;-77
2022/12/13 02:35:48;;;;;;;5.60;3.60;;;11.00;56.10;;;;;;4995685;28;20389;-76
2022/12/13 02:38:17;;;;;;;4.28;3.08;;;11.00;56.20;;;;;;4994448;28;20044;-76
2022/12/13 02:40:56;;;;;;;4.30;3.33;;;11.00;56.20;;;;;;4993680;28;20027;-76
2022/12/13 02:43:39;;;;;;;3.65;3.03;;;11.00;56.10;;;;;;4995335;28;20635;-76
2022/12/13 02:46:07;;;;;;;3.92;3.22;;;10.90;69.90;;;;;;4995440;28;20076;-76
2022/12/13 02:48:37;;;;;;;4.30;3.30;;;11.00;56.10;;;;;;4977794;28;20015;-76
2022/12/13 02:51:04;;;;;;;4.50;3.65;;;11.00;56.10;;;;;;4977919;28;20050;-76
2022/12/13 02:53:32;;;;;;;5.72;3.85;;;10.90;56.10;;;;;;4995211;28;20034;-76
2022/12/13 02:55:57;;;;;;;5.10;3.53;;;10.90;56.10;;;;;;4977864;28;20019;-76
2022/12/13 02:58:28;;;;;;;7.13;3.55;;;11.00;56.10;;;;;;4993916;28;20397;-76
2022/12/13 03:01:12;;;;;;;5.22;3.50;;;10.90;56.10;;;;;;4977581;28;20512;-76
2022/12/13 03:03:50;;;;;;;4.65;3.28;;;10.90;56.10;;;;;;4995180;28;20070;-76
2022/12/13 03:07:01;;;;;;;3.95;3.10;;;10.90;56.10;;;;;;4993778;28;20027;-77
2022/12/13 03:09:48;;;;;;;6.63;3.70;;;10.90;56.00;;;;;;4993562;28;20552;-76
2022/12/13 03:15:14;;;;;;;4.22;3.40;;;10.90;56.20;;;;;;4995284;28;20088;-76
2022/12/13 03:17:49;;;;;;;4.05;3.20;;;10.90;56.10;;;;;;4993609;28;20553;-76
2022/12/13 03:20:17;;;;;;;5.32;3.50;;;10.90;56.70;;;;;;4993498;28;20027;-76
2022/12/13 03:22:43;;;;;;;4.57;3.45;;;10.90;56.10;;;;;;4977110;28;20034;-76
2022/12/13 03:25:09;;;;;;;4.60;2.80;;;10.90;56.00;;;;;;4994695;28;20041;-76
2022/12/13 03:27:34;;;;;;;4.78;3.22;;;10.80;56.20;;;;;;4993303;28;20046;-76
2022/12/13 03:30:00;;;;;;;5.20;3.47;;;11.00;56.20;;;;;;4993247;28;20030;-76
2022/12/13 03:32:26;;;;;;;4.20;3.22;;;10.80;56.10;;;;;;4994595;28;20026;-76
2022/12/13 03:34:51;;;;;;;4.03;2.90;;;10.80;69.80;;;;;;4993243;28;20033;-76
2022/12/13 03:37:17;;;;;;;5.03;3.25;;;10.80;69.70;;;;;;4994574;28;20074;-76
2022/12/13 03:39:43;;;;;;;5.55;3.38;;;10.80;56.00;;;;;;4994454;28;20429;-76
2022/12/13 03:42:08;;;;;;;3.75;3.25;;;10.80;56.10;;;;;;4993252;28;20492;-76
2022/12/13 03:44:34;;;;;;;5.53;3.88;;;10.80;56.10;;;;;;4994612;28;20158;-75
2022/12/13 03:46:59;;;;;;;4.95;3.50;;;10.80;56.10;;;;;;4992910;28;20019;-75
2022/12/13 03:49:25;;;;;;;3.72;3.33;;;10.80;56.20;;;;;;4976772;28;20080;-76
2022/12/13 03:51:50;;;;;;;4.63;3.20;;;10.80;56.10;;;;;;4993124;28;20080;-76
2022/12/13 03:54:16;;;;;;;4.35;3.45;;;10.70;56.10;;;;;;4992115;28;20030;-76
2022/12/13 03:56:42;;;;;;;4.13;3.17;;;10.70;56.00;;;;;;4994198;28;20532;-75
2022/12/13 03:59:07;;;;;;;4.07;3.08;;;10.70;56.20;;;;;;4992844;28;20054;-76
2022/12/13 04:01:33;;;;;;;4.82;3.45;;;10.70;56.20;;;;;;4992587;28;20050;-76
2022/12/13 04:03:58;;;;;;;4.40;3.00;;;10.70;56.30;;;;;;4992640;28;20033;-76
2022/12/13 04:06:24;;;;;;;4.88;3.38;;;10.70;56.10;;;;;;4992594;28;20045;-76
2022/12/13 04:08:51;;;;;;;4.38;3.33;;;10.70;56.30;;;;;;4992661;28;20080;-76
2022/12/13 04:14:01;;;;;;;5.28;3.72;;;10.70;56.10;;;;;;4992730;28;20165;-75
2022/12/13 04:16:26;;;;;;;5.85;3.60;;;10.60;56.40;;;;;;4993638;28;20461;-75
2022/12/13 04:18:52;;;;;;;3.38;2.90;;;10.70;56.20;;;;;;4993558;28;20032;-76
2022/12/13 04:21:17;;;;;;;6.07;3.83;;;10.70;56.00;;;;;;4992176;28;20018;-76
2022/12/13 04:23:43;;;;;;;4.22;3.30;;;10.70;56.10;;;;;;4993417;28;20400;-76
2022/12/13 04:26:09;;;;;;;4.40;3.15;;;10.70;56.30;;;;;;4992191;28;20468;-76
2022/12/13 04:28:34;;;;;;;4.22;3.33;;;10.60;56.00;;;;;;4993547;28;20027;-76
2022/12/13 04:31:00;;;;;;;3.40;3.10;;;10.60;56.00;;;;;;4993473;28;20030;-76
2022/12/13 04:33:26;;;;;;;4.28;3.05;;;10.60;56.10;;;;;;4993467;28;20426;-76
2022/12/13 04:35:54;;;;;;;5.18;3.15;;;10.60;55.50;;;;;;4992297;28;20022;-76
2022/12/13 04:38:20;;;;;;;3.80;3.30;;;10.50;70.30;;;;;;4991968;28;20024;-76
2022/12/13 04:40:45;;;;;;;4.45;3.45;;;10.70;56.10;;;;;;4992063;28;20030;-76
2022/12/13 04:43:11;;;;;;;6.13;3.22;;;10.60;56.10;;;;;;4992068;28;20026;-76
2022/12/13 04:45:37;;;;;;;6.13;3.28;;;10.70;56.10;;;;;;4993216;28;20481;-76
2022/12/13 04:48:03;;;;;;;4.22;3.20;;;10.80;56.20;;;;;;4993208;28;20079;-76
2022/12/13 04:50:28;;;;;;;4.93;3.75;;;10.60;56.80;;;;;;4993262;28;20034;-78
2022/12/13 04:52:54;;;;;;;4.10;2.90;;;10.60;56.10;;;;;;4993179;28;20030;-77
2022/12/13 04:55:20;;;;;;;3.50;3.20;;;10.60;56.00;;;;;;4993196;28;20019;-77
2022/12/13 04:57:45;;;;;;;5.03;3.30;;;10.70;56.10;;;;;;4991746;28;20077;-77
2022/12/13 05:00:12;;;;;;;5.30;3.00;;;10.60;56.00;;;;;;4993060;28;20503;-78
2022/12/13 05:02:40;;;;;;;4.18;3.58;;;10.60;56.10;;;;;;4991432;28;20104;-77
2022/12/13 05:05:08;;;;;;;4.00;2.97;;;10.40;69.70;;;;;;4991700;28;20493;-78
2022/12/13 05:07:33;;;;;;;4.25;2.90;;;10.60;56.00;;;;;;4991742;28;20029;-78
2022/12/13 05:09:59;;;;;;;4.57;3.47;;;10.60;56.20;;;;;;4991716;28;20033;-77
2022/12/13 05:12:24;;;;;;;4.78;3.55;;;10.60;56.10;;;;;;4993168;28;20073;-77
2022/12/13 05:14:51;;;;;;;4.97;3.50;;;10.60;56.10;;;;;;4993169;28;20049;-77
2022/12/13 05:17:17;;;;;;;3.97;2.92;;;10.50;70.40;;;;;;4992871;28;20031;-77
2022/12/13 05:19:42;;;;;;;4.47;3.05;;;10.60;56.10;;;;;;4991371;28;20044;-77
2022/12/13 05:22:14;;;;;;;4.35;3.30;;;10.50;56.10;;;;;;4991341;28;20022;-77
2022/12/13 05:24:41;;;;;;;3.83;3.35;;;10.60;56.20;;;;;;4991480;28;20049;-77
2022/12/13 05:27:07;;;;;;;3.97;2.92;;;10.60;56.20;;;;;;4991509;28;20031;-77
2022/12/13 05:29:33;;;;;;;3.70;3.03;;;10.60;56.20;;;;;;4991575;28;20070;-77
2022/12/13 05:31:58;;;;;;;5.15;3.25;;;10.60;56.30;;;;;;4992602;28;20359;-77
2022/12/13 05:34:24;;;;;;;4.35;3.25;;;10.80;56.50;;;;;;4991446;28;20117;-77
2022/12/13 05:36:50;;;;;;;4.10;3.22;;;10.50;56.40;;;;;;4991445;28;20019;-77
2022/12/13 05:39:15;;;;;;;4.03;3.20;;;10.50;57.00;;;;;;4992581;28;20503;-77
2022/12/13 05:41:41;;;;;;;4.80;4.03;;;10.60;56.60;;;;;;4992383;28;20033;-78
2022/12/13 05:44:09;;;;;;;4.97;3.83;;;10.60;56.60;;;;;;4992651;28;20074;-78
2022/12/13 05:46:35;;;;;;;4.75;3.63;;;10.60;56.60;;;;;;4992488;28;20370;-78
2022/12/13 05:49:01;;;;;;;4.93;4.30;;;10.60;57.00;;;;;;4992367;28;20031;-77
2022/12/13 05:51:27;;;;;;;4.88;4.38;;;10.60;71.10;;;;;;4991045;28;20499;-78
2022/12/13 05:53:52;;;;;;;5.70;5.10;;;10.70;56.70;;;;;;4992434;28;20101;-77
2022/12/13 05:56:18;;;;;;;6.82;6.13;;;10.60;56.80;;;;;;4991020;28;20023;-77
2022/12/13 05:58:44;;;;;;;6.75;6.07;;;10.40;71.00;;;;;;4992390;28;20026;-77
2022/12/13 06:01:12;;;;;;;7.32;6.57;;;10.60;71.00;;;;;;4992144;28;20026;-77
2022/12/13 06:03:38;;;;;;;8.45;7.65;;;10.50;71.30;;;;;;4990974;28;20451;-77
2022/12/13 06:06:06;;;;;;;9.10;8.25;;;10.50;56.90;;;;;;4990959;28;20512;-78
2022/12/13 06:08:31;;;;;;;9.40;8.57;;;10.60;57.00;;;;;;4990895;28;20065;-77
2022/12/13 06:10:59;;;;;;;10.80;9.27;;;10.50;71.30;;;;;;4990907;28;20046;-78
2022/12/13 06:13:25;;;;;;;11.32;10.23;;;10.40;71.60;;;;;;4990979;28;20146;-79
2022/12/13 06:15:51;;;;;;;11.43;10.30;;;10.50;57.00;;;;;;4992339;28;20117;-79
2022/12/13 06:18:20;;;;;;;9.68;8.77;;;10.50;57.00;;;;;;4995750;28;20087;-79
2022/12/13 06:20:56;;;;;;;12.68;11.30;;;10.20;57.80;;;;;;4995831;28;20034;-79
2022/12/13 06:23:22;;;;;;;15.20;11.68;;;10.60;57.00;;;;;;4978105;28;20184;-79
2022/12/13 06:25:48;;;;;;;13.63;11.82;;;10.60;56.80;;;;;;4994426;28;20113;-78
2022/12/13 06:28:13;;;;;;;12.40;11.18;;;10.60;71.40;;;;;;4995761;28;20034;-78
2022/12/13 06:30:39;;;;;;;14.55;11.38;;;10.70;72.30;;;;;;4995540;28;20027;-79
2022/12/13 06:33:04;;;;;;;13.98;11.57;;;10.50;71.70;;;;;;4978080;28;20030;-78
2022/12/13 06:35:30;;;;;;;12.05;10.27;;;10.50;57.40;;;;;;4995491;28;20015;-77
2022/12/13 06:37:59;;;;;;;11.63;10.40;;;10.50;56.90;;;;;;4995561;28;20034;-77
2022/12/13 06:40:24;;;;;;;12.77;10.48;;;10.50;57.00;;;;;;4995578;28;20370;-76
2022/12/13 06:42:50;;;;;;;15.05;10.48;;;10.50;57.10;;;;;;4995254;28;20038;-77
2022/12/13 06:45:16;;;;;;;12.07;9.63;;;10.50;57.10;;;;;;4977667;28;20488;-77
2022/12/13 06:47:41;;;;;;;11.18;8.95;;;10.70;72.30;;;;;;4993943;28;20125;-77
2022/12/13 06:50:08;;;;;;;10.70;9.30;;;10.40;57.00;;;;;;4995200;28;20018;-77
2022/12/13 06:52:34;;;;;;;11.77;9.35;;;10.50;71.80;;;;;;4993890;28;20392;-77
2022/12/13 06:55:00;;;;;;;10.38;8.93;;;10.40;57.00;;;;;;4995225;28;20031;-77
2022/12/13 06:57:25;;;;;;;9.65;8.60;;;10.60;72.00;;;;;;4995458;28;20433;-77
2022/12/13 06:59:54;;;;;;;9.85;8.75;;;10.40;57.40;;;;;;4993970;28;20018;-77
2022/12/13 07:02:19;;;;;;;9.10;8.15;;;10.50;57.50;;;;;;4993469;28;20046;-77
2022/12/13 07:04:45;;;;;;;10.52;8.18;;;10.50;57.40;;;;;;4993656;28;20045;-76
2022/12/13 07:07:10;;;;;;;8.85;7.28;;;10.40;56.90;;;;;;4993770;28;20475;-77
2022/12/13 07:09:36;;;;;;;8.27;7.32;;;10.40;57.10;;;;;;4994902;28;20408;-77
2022/12/13 07:12:02;;;;;;;11.80;7.45;;;10.40;57.00;;;;;;4993792;28;20032;-77
2022/12/13 07:14:27;;;;;;;11.10;7.57;;;10.40;57.10;;;;;;4993910;28;20022;-78
2022/12/13 07:16:53;;;;;;;9.35;7.93;;;10.40;57.30;;;;;;4994996;28;20026;-77
2022/12/13 07:19:18;;;;;;;9.07;6.25;;;10.40;57.10;;;;;;4993794;28;20026;-77
2022/12/13 07:21:44;;;;;;;8.23;6.53;;;10.60;57.10;;;;;;4994893;28;20109;-77
2022/12/13 07:24:10;;;;;;;7.88;6.28;;;;;;;;;;4977414;28;20049;-77
2022/12/13 07:26:36;;;;;;;7.93;6.30;;;10.50;56.50;;;;;;4994959;28;20038;-77
2022/12/13 07:29:03;;;;;;;7.70;6.32;;;10.50;57.00;;;;;;4994577;28;20401;-77
2022/12/13 07:31:29;;;;;;;9.65;6.35;;;10.50;57.00;;;;;;4994615;28;20097;-76
2022/12/13 07:33:54;;;;;;;10.10;6.65;;;10.50;57.00;;;;;;4993320;28;20026;-77
2022/12/13 07:36:22;;;;;;;8.68;6.22;;;10.60;71.90;;;;;;4993469;28;20057;-76
2022/12/13 07:38:56;;;;;;;8.00;5.97;;;10.40;57.60;;;;;;4994666;28;20101;-77
2022/12/13 07:41:23;;;;;;;8.30;6.20;;;10.50;56.80;;;;;;4993347;28;20049;-77
2022/12/13 07:43:48;;;;;;;12.13;6.10;;;10.40;57.00;;;;;;4993068;28;20030;-77
2022/12/13 07:46:14;;;;;;;8.93;5.95;;;10.40;57.50;;;;;;4993113;28;20102;-77
2022/12/13 07:48:40;;;;;;;7.30;5.13;;;;;;;;;;4994354;28;20439;-77
2022/12/13 07:51:12;;;;;;;6.70;5.38;;;10.40;56.20;;;;;;4993040;28;20481;-77
2022/12/13 07:53:39;;;;;;;9.20;5.13;;;10.50;56.90;;;;;;4993153;28;20113;-77
2022/12/13 07:56:06;;;;;;;7.35;5.38;;;10.40;56.60;;;;;;4994316;28;20370;-77
2022/12/13 07:58:32;;;;;;;7.40;4.95;;;10.40;56.60;;;;;;4994315;28;20027;-79
2022/12/13 08:01:10;;;;;;;5.57;4.55;;;10.40;56.70;;;;;;4992940;28;20473;-77
2022/12/13 08:03:37;;;;;;;5.68;4.68;;;;;;;;;;4976692;28;20158;-77
2022/12/13 08:06:11;;;;;;;6.90;4.70;;;10.40;56.20;;;;;;4992704;28;20501;-77
2022/12/13 08:08:37;;;;;;;6.07;4.30;;;10.40;57.40;;;;;;4976559;28;20125;-77
2022/12/13 08:11:05;;;;;;;5.80;4.55;;;10.40;71.40;;;;;;4993317;28;20026;-77
2022/12/13 08:13:31;;;;;;;7.15;4.47;;;10.40;56.70;;;;;;4994188;28;20381;-77
2022/12/13 08:16:01;;;;;;;6.32;4.50;;;10.40;56.70;;;;;;4994118;28;20064;-77
2022/12/13 08:18:28;;;;;;;5.75;4.07;;;10.50;56.80;;;;;;4976873;28;20400;-77
2022/12/13 08:21:03;;;;;;;6.03;3.83;;;10.40;56.70;;;;;;4994088;28;20033;-77
2022/12/13 08:23:31;;;;;;;5.65;3.90;;;10.40;57.30;;;;;;4976646;28;20055;-77
2022/12/13 08:25:57;;;;;;;5.70;4.22;;;10.40;56.60;;;;;;4992535;28;20026;-77
2022/12/13 08:28:24;;;;;;;8.95;4.65;;;10.40;56.60;;;;;;4992685;28;20023;-76
2022/12/13 08:30:50;;;;;;;6.55;4.25;;;10.40;56.60;;;;;;4976743;28;20051;-77
2022/12/13 08:33:17;;;;;;;7.15;4.25;;;10.40;56.70;;;;;;4993707;28;20523;-77
2022/12/13 08:35:43;;;;;;;5.63;3.67;;;10.40;56.70;;;;;;4993596;28;20037;-77
2022/12/13 08:38:10;;;;;;;6.00;3.67;;;10.40;71.30;;;;;;4992250;28;20018;-77
2022/12/13 08:40:35;;;;;;;6.55;4.03;;;10.40;56.70;;;;;;4975624;28;20046;-77
2022/12/13 08:43:01;;;;;;;8.55;4.40;;;10.40;56.70;;;;;;4993515;28;20062;-77
2022/12/13 08:45:27;;;;;;;7.40;4.22;;;10.40;56.60;;;;;;4992622;28;20038;-77
2022/12/13 08:47:55;;;;;;;6.50;4.10;;;10.40;56.60;;;;;;4992182;28;20018;-77
2022/12/13 08:50:21;;;;;;;6.95;4.40;;;10.40;56.60;;;;;;4993354;28;20030;-77
2022/12/13 08:52:47;;;;;;;6.88;4.63;;;;;;;;;;4992100;28;20118;-77
2022/12/13 08:55:14;;;;;;;6.05;4.15;;;10.40;56.10;;;;;;4993305;28;20034;-77
2022/12/13 08:57:41;;;;;;;5.70;4.00;;;10.40;56.70;;;;;;4993188;28;20034;-77
2022/12/13 09:00:12;;;;;;;7.53;4.43;;;10.40;56.70;;;;;;4993194;28;20503;-77
2022/12/13 09:02:39;;;;;;;6.88;4.00;;;10.40;56.60;;;;;;4975300;28;20081;-76
2022/12/13 09:05:06;;;;;;;5.97;4.18;;;10.40;56.60;;;;;;4991912;28;20132;-76
2022/12/13 09:07:31;;;;;;;5.13;4.15;;;10.40;56.60;;;;;;4993129;28;20149;-77
2022/12/13 09:09:57;;;;;;;7.93;4.40;;;10.50;71.00;;;;;;4991908;28;20117;-77
2022/12/13 09:12:23;;;;;;;6.05;4.50;;;10.30;71.20;;;;;;4993067;28;20396;-77
2022/12/13 09:14:48;;;;;;;5.10;4.30;;;10.40;56.60;;;;;;4993096;28;20018;-76
2022/12/13 09:17:15;;;;;;;6.63;4.30;;;10.40;56.60;;;;;;4993068;28;20022;-77
2022/12/13 09:19:40;;;;;;;5.97;3.92;;;10.40;56.60;;;;;;4991729;28;20033;-76
2022/12/13 09:22:06;;;;;;;8.05;4.68;;;10.40;56.60;;;;;;4991738;28;20038;-76
2022/12/13 09:24:32;;;;;;;6.32;4.10;;;10.40;71.10;;;;;;4993033;28;20034;-77
2022/12/13 09:26:58;;;;;;;6.03;4.35;;;10.40;57.20;;;;;;4992913;28;20481;-77
2022/12/13 09:29:24;;;;;;;6.95;4.50;;;10.40;71.10;;;;;;4991651;28;20040;-77
2022/12/13 09:31:49;;;;;;;6.82;5.00;;;10.40;56.50;;;;;;4991698;28;20113;-77
2022/12/13 09:34:15;;;;;;;5.95;4.53;;;10.40;56.70;;;;;;4991619;28;20077;-77
2022/12/13 09:36:41;;;;;;;5.82;4.25;;;10.50;56.60;;;;;;4975371;28;20408;-77
2022/12/13 09:39:07;;;;;;;6.97;4.82;;;10.40;56.40;;;;;;4991615;28;20026;-77
2022/12/13 09:41:47;;;;;;;6.20;4.60;;;10.40;56.50;;;;;;4992749;28;20440;-77
2022/12/13 09:44:31;;;;;;;5.82;4.10;;;10.40;56.50;;;;;;4991501;28;20034;-77
2022/12/13 09:46:59;;;;;;;7.03;4.32;;;10.40;57.10;;;;;;4992787;28;20030;-76
2022/12/13 09:49:43;;;;;;;7.28;4.53;;;10.40;56.50;;;;;;4992700;28;20053;-77
2022/12/13 09:52:17;;;;;;;5.38;4.13;;;10.40;56.50;;;;;;4995063;28;20029;-77
2022/12/13 09:54:43;;;;;;;6.45;4.65;;;10.40;56.60;;;;;;4979143;28;20030;-77
2022/12/13 09:57:16;;;;;;;6.38;4.32;;;10.40;56.70;;;;;;4995290;28;20105;-76
2022/12/13 09:59:42;;;;;;;6.82;4.70;;;10.40;56.80;;;;;;4995337;28;20022;-77
2022/12/13 10:02:24;;;;;;;7.13;4.75;;;10.40;57.70;;;;;;4996267;28;20043;-78
2022/12/13 10:04:51;;;;;;;8.40;4.72;;;10.40;57.10;;;;;;4978844;28;20052;-77
2022/12/13 10:07:19;;;;;;;7.60;4.70;;;10.50;57.30;;;;;;4996342;28;20037;-78
2022/12/13 10:09:46;;;;;;;6.80;5.00;;;10.50;57.30;;;;;;4996228;28;20377;-77
2022/12/13 10:12:14;;;;;;;8.13;5.35;;;10.50;57.40;;;;;;4978713;28;20033;-77
2022/12/13 10:14:47;;;;;;;7.07;4.63;;;10.50;57.00;;;;;;4994904;28;20077;-77
2022/12/13 10:17:18;;;;;;;8.13;4.45;;;10.50;57.00;;;;;;4978660;28;20023;-77
2022/12/13 10:19:50;;;;;;;6.13;4.47;;;10.50;57.50;;;;;;4996204;28;20026;-76
2022/12/13 10:22:18;;;;;;;8.07;4.72;;;10.50;57.50;;;;;;4996405;28;20085;-77
2022/12/13 10:25:04;;;;;;;6.78;4.38;;;10.70;57.60;;;;;;4978417;28;20037;-77
2022/12/13 10:27:43;;;;;;;6.05;4.47;;;10.60;57.60;;;;;;4994587;28;20022;-77
2022/12/13 10:30:14;;;;;;;5.63;4.38;;;10.60;57.50;;;;;;4978576;28;20481;-76
2022/12/13 10:33:02;;;;;;;6.38;4.50;;;10.60;57.50;;;;;;4994625;28;20026;-76
2022/12/13 10:35:35;;;;;;;5.55;4.07;;;10.60;57.50;;;;;;4995800;28;20072;-77
2022/12/13 10:38:21;;;;;;;5.90;4.25;;;10.60;57.50;;;;;;4978441;28;20026;-76
2022/12/13 10:40:49;;;;;;;5.53;4.07;;;10.60;57.40;;;;;;4978156;28;20065;-77
2022/12/13 10:43:25;;;;;;;7.30;4.57;;;10.70;57.40;;;;;;4995680;28;20034;-76
2022/12/13 10:45:59;;;;;;;6.88;4.60;;;10.70;56.80;;;;;;4995972;28;20388;-77
2022/12/13 10:48:46;;;;;;;6.43;4.47;;;10.70;57.30;;;;;;4995655;28;20073;-78
2022/12/13 10:51:14;;;;;;;5.32;3.95;;;10.70;57.30;;;;;;4978218;28;20030;-77
2022/12/13 10:53:45;;;;;;;6.47;4.70;;;10.80;57.40;;;;;;4995457;28;20033;-78
2022/12/13 10:56:11;;;;;;;5.00;3.67;;;10.70;57.40;;;;;;4995571;28;20041;-77
2022/12/13 10:58:40;;;;;;;7.28;4.28;;;10.70;57.40;;;;;;4995440;28;20353;-77
2022/12/13 11:01:17;;;;;;;5.55;4.07;;;10.50;71.70;;;;;;4995365;28;20022;-77
2022/12/13 11:04:02;;;;;;;6.10;4.18;;;10.80;57.50;;;;;;4994763;28;20045;-77
2022/12/13 11:06:44;;;;;;;6.18;4.47;;;10.70;57.40;;;;;;4995383;28;20038;-77
2022/12/13 11:09:25;;;;;;;6.75;4.18;;;10.70;57.50;;;;;;4995216;28;20030;-77
2022/12/13 11:11:59;;;;;;;6.75;4.40;;;10.70;57.50;;;;;;4995033;28;20388;-77
2022/12/13 11:14:35;;;;;;;5.43;4.03;;;10.70;57.50;;;;;;4995194;28;20108;-77
2022/12/13 11:17:18;;;;;;;6.15;4.38;;;10.70;57.50;;;;;;4993719;28;20405;-77
2022/12/13 11:19:47;;;;;;;6.25;4.63;;;10.70;57.50;;;;;;4977526;28;20105;-77
2022/12/13 11:22:23;;;;;;;6.60;4.13;;;10.70;57.50;;;;;;4994991;28;20022;-77
2022/12/13 11:25:00;;;;;;;7.15;3.88;;;10.80;71.50;;;;;;4977286;28;20034;-77
2022/12/13 11:28:00;;;;;;;6.40;4.32;;;10.80;57.40;;;;;;4994895;28;20058;-77
2022/12/13 11:30:58;;;;;;;7.82;3.97;;;10.80;57.40;;;;;;4993590;28;20092;-77
2022/12/13 11:33:42;;;;;;;5.63;4.07;;;10.80;57.30;;;;;;4994687;28;20084;-77
2022/12/13 11:36:36;;;;;;;5.00;4.10;;;10.90;57.30;;;;;;4994583;28;20018;-77
2022/12/13 11:39:28;;;;;;;6.03;4.20;;;10.90;57.20;;;;;;4993234;28;20109;-78
2022/12/13 11:42:24;;;;;;;6.60;4.00;;;10.90;57.70;;;;;;4976883;28;20037;-77
2022/12/13 11:45:10;;;;;;;6.05;4.13;;;11.00;57.10;;;;;;4992965;28;20136;-77
2022/12/13 11:47:47;;;;;;;5.88;4.22;;;10.90;57.10;;;;;;4994265;28;20014;-77
2022/12/13 11:50:28;;;;;;;5.68;3.83;;;11.00;57.10;;;;;;4994428;28;20022;-77
2022/12/13 11:53:03;;;;;;;6.65;4.03;;;11.00;56.90;;;;;;4994329;28;20061;-77
2022/12/13 11:55:43;;;;;;;6.40;4.75;;;11.00;56.90;;;;;;4994249;28;20018;-77
2022/12/13 11:58:12;;;;;;;4.85;4.18;;;11.10;56.80;;;;;;4994306;28;20033;-77
2022/12/13 12:01:01;;;;;;;5.55;4.38;;;11.10;56.70;;;;;;4992882;28;20129;-77
2022/12/13 12:03:45;;;;;;;4.57;3.67;;;11.20;56.60;;;;;;4993786;28;20054;-77
2022/12/13 12:06:14;;;;;;;5.65;4.43;;;11.20;56.70;;;;;;4976527;28;20026;-77
2022/12/13 12:08:45;;;;;;;6.20;4.15;;;11.20;56.60;;;;;;4994000;28;20027;-77
2022/12/13 12:11:22;;;;;;;6.20;4.18;;;11.10;70.40;;;;;;4994027;28;20026;-77
2022/12/13 12:13:59;;;;;;;5.70;4.07;;;11.20;56.70;;;;;;4993158;28;20023;-77
2022/12/13 12:16:32;;;;;;;5.40;4.18;;;11.20;56.80;;;;;;4993925;28;20022;-77
2022/12/13 12:18:59;;;;;;;5.20;3.72;;;11.20;56.80;;;;;;4993776;28;20138;-77
2022/12/13 12:21:41;;;;;;;4.05;3.47;;;11.20;56.90;;;;;;4993751;28;20101;-77
2022/12/13 12:24:25;;;;;;;6.50;4.25;;;11.20;57.00;;;;;;4992302;28;20038;-77
2022/12/13 12:27:10;;;;;;;5.22;3.80;;;11.20;57.10;;;;;;4993625;28;20030;-77
2022/12/13 12:29:50;;;;;;;4.25;3.67;;;11.80;57.50;;;;;;4992340;28;20520;-77
2022/12/13 12:32:35;;;;;;;6.75;3.85;;;11.20;57.20;;;;;;4992345;28;20640;-77
2022/12/13 12:35:32;;;;;;;5.18;4.07;;;11.10;57.30;;;;;;4993395;28;20481;-77
2022/12/13 12:38:31;;;;;;;4.90;3.80;;;11.10;57.40;;;;;;4993381;28;20033;-77
2022/12/13 12:41:07;;;;;;;5.43;3.80;;;11.10;57.50;;;;;;4970385;28;20030;-78
2022/12/13 12:43:41;;;;;;;4.82;3.47;;;11.10;57.70;;;;;;4992092;28;20066;-77
2022/12/13 12:46:39;;;;;;;4.35;3.63;;;11.10;57.60;;;;;;4993413;28;20092;-77
2022/12/13 12:49:23;;;;;;;5.03;3.70;;;11.10;57.70;;;;;;4993358;28;20034;-77
2022/12/13 12:51:52;;;;;;;4.90;3.78;;;11.10;57.70;;;;;;4992045;28;20092;-77
2022/12/13 12:54:51;;;;;;;5.00;3.78;;;11.10;57.80;;;;;;4991934;28;20065;-77
2022/12/13 12:57:22;;;;;;;5.70;3.80;;;11.10;57.80;;;;;;4991792;28;20057;-77
2022/12/13 13:00:08;;;;;;;4.32;3.42;;;11.00;57.80;;;;;;4991881;28;20030;-77
2022/12/13 13:02:52;;;;;;;4.85;3.42;;;11.10;57.90;;;;;;4992923;28;20038;-77
2022/12/13 13:05:21;;;;;;;5.05;3.47;;;11.00;57.80;;;;;;4993134;28;20069;-77
2022/12/13 13:07:53;;;;;;;4.22;3.42;;;11.00;57.90;;;;;;4992020;28;20034;-77
2022/12/13 13:10:20;;;;;;;5.75;4.00;;;11.00;57.90;;;;;;4993041;28;20038;-77